Terminal Aerodrome Forecast
Issued by NWS

Home | Current Version | Previous Version | Text Only | Print | Product List | Glossary On
Versions: 1 2 3 4 5 6 7 8 9 10 11 12 13 14 15 16 17 18 19 20 21 22 23 24 25 26 27 28 29 30 31 32 33 34 35 36 37 38 39
000
FTUS45 KSLC 260205 AAB
TAFOGD
TAF AMD
KOGD 260205Z 2602/2624 34010G18KT P6SM VCSH SCT015 BKN060
     FM260900 04010KT P6SM BKN060
     FM261500 35006KT P6SM SCT050 BKN100=

USA.gov is the U.S. government's official web portal to all federal, state and local government web resources and services.